Time,TemperatureF,DewpointF,PressureIn,WindDirection,WindDirectionDegrees,WindSpeedMPH,WindSpeedGustMPH,Humidity,HourlyPrecipIn,Conditions,Clouds,dailyrainin,SoftwareType,DateUTC
2013-04-01 00:04:00,57.9,54.7,29.63,NNE,22,0.0,-999.0,89,-99.99,,,0.00,Acu-Link.com,2013-04-01 04:04:00,
2013-04-01 00:19:00,57.7,54.5,29.63,WSW,247,2.2,-999.0,89,-99.99,,,0.00,Acu-Link.com,2013-04-01 04:19:00,
2013-04-01 00:34:00,58.1,54.6,29.63,WSW,247,3.2,-999.0,88,-99.99,,,0.00,Acu-Link.com,2013-04-01 04:34:00,
2013-04-01 00:49:00,57.7,54.8,29.63,WNW,292,0.0,-999.0,90,-99.99,,,0.00,Acu-Link.com,2013-04-01 04:49:00,
2013-04-01 01:04:00,57.2,54.9,29.63,West,270,0.0,-999.0,92,-99.99,,,0.00,Acu-Link.com,2013-04-01 05:04:00,
2013-04-01 01:20:00,56.8,55.1,29.63,SE,135,0.0,-999.0,94,-99.99,,,0.01,Acu-Link.com,2013-04-01 05:20:00,
2013-04-01 01:35:00,56.5,55.1,29.62,SSE,157,1.7,-999.0,95,-99.99,,,0.01,Acu-Link.com,2013-04-01 05:35:00,
2013-04-01 01:50:00,56.5,55.4,29.62,ESE,112,0.0,-999.0,96,-99.99,,,0.02,Acu-Link.com,2013-04-01 05:50:00,
2013-04-01 02:05:00,56.3,55.2,29.63,ESE,112,0.0,-999.0,96,-99.99,,,0.02,Acu-Link.com,2013-04-01 06:05:00,
2013-04-01 02:20:00,56.3,55.5,29.62,South,180,0.0,-999.0,97,-99.99,,,0.02,Acu-Link.com,2013-04-01 06:20:00,
2013-04-01 02:35:00,56.3,55.7,29.63,NE,45,0.0,-999.0,98,-99.99,,,0.02,Acu-Link.com,2013-04-01 06:35:00,
2013-04-01 02:50:00,56.3,55.7,29.63,ESE,112,0.0,-999.0,98,-99.99,,,0.02,Acu-Link.com,2013-04-01 06:50:00,
2013-04-01 03:05:00,56.1,55.3,29.63,SSE,157,0.0,-999.0,97,-99.99,,,0.02,Acu-Link.com,2013-04-01 07:05:00,
2013-04-01 03:20:00,56.1,55.0,29.63,East,90,0.0,-999.0,96,-99.99,,,0.02,Acu-Link.com,2013-04-01 07:20:00,
2013-04-01 03:35:00,55.9,54.8,29.62,ESE,112,1.1,-999.0,96,-99.99,,,0.02,Acu-Link.com,2013-04-01 07:35:00,
2013-04-01 03:51:00,55.8,52.6,29.63,SE,135,1.1,-999.0,89,-99.99,,,0.02,Acu-Link.com,2013-04-01 07:51:00,
2013-04-01 04:21:00,55.0,50.6,29.63,SE,135,3.7,-999.0,85,-99.99,,,0.02,Acu-Link.com,2013-04-01 08:21:00,
2013-04-01 04:37:00,54.9,50.5,29.63,South,180,1.7,-999.0,85,-99.99,,,0.02,Acu-Link.com,2013-04-01 08:37:00,
2013-04-01 04:52:00,54.3,51.1,29.64,South,180,0.0,-999.0,89,-99.99,,,0.02,Acu-Link.com,2013-04-01 08:52:00,
2013-04-01 05:07:00,54.1,50.9,29.64,East,90,0.0,-999.0,89,-99.99,,,0.02,Acu-Link.com,2013-04-01 09:07:00,
2013-04-01 05:22:00,54.0,50.5,29.64,South,180,0.0,-999.0,88,-99.99,,,0.02,Acu-Link.com,2013-04-01 09:22:00,
2013-04-01 05:52:00,54.0,49.6,29.64,East,90,0.0,-999.0,85,-99.99,,,0.02,Acu-Link.com,2013-04-01 09:52:00,
2013-04-01 06:07:00,53.8,49.7,29.64,ESE,112,1.7,-999.0,86,-99.99,,,0.02,Acu-Link.com,2013-04-01 10:07:00,
2013-04-01 06:23:00,53.2,48.8,29.65,ESE,112,0.0,-999.0,85,-99.99,,,0.02,Acu-Link.com,2013-04-01 10:23:00,
2013-04-01 06:53:00,54.0,48.0,29.65,SE,135,1.1,-999.0,80,-99.99,,,0.02,Acu-Link.com,2013-04-01 10:53:00,
2013-04-01 07:08:00,53.6,47.9,29.66,ENE,67,0.0,-999.0,81,-99.99,,,0.02,Acu-Link.com,2013-04-01 11:08:00,
2013-04-01 07:23:00,53.4,47.1,29.66,East,90,1.1,-999.0,79,-99.99,,,0.02,Acu-Link.com,2013-04-01 11:23:00,
2013-04-01 07:38:00,52.7,47.7,29.67,ESE,112,0.0,-999.0,83,-99.99,,,0.02,Acu-Link.com,2013-04-01 11:38:00,
2013-04-01 07:53:00,52.3,46.6,29.68,West,270,0.0,-999.0,81,-99.99,,,0.02,Acu-Link.com,2013-04-01 11:53:00,
2013-04-01 08:08:00,54.0,43.7,29.69,East,90,2.7,-999.0,68,-99.99,,,0.02,Acu-Link.com,2013-04-01 12:08:00,
2013-04-01 08:23:00,55.2,43.2,29.70,ENE,67,4.2,-999.0,64,-99.99,,,0.02,Acu-Link.com,2013-04-01 12:23:00,
2013-04-01 08:39:00,55.9,41.3,29.71,East,90,2.7,-999.0,58,-99.99,,,0.02,Acu-Link.com,2013-04-01 12:39:00,
2013-04-01 08:54:00,56.1,39.2,29.71,ENE,67,3.7,-999.0,53,-99.99,,,0.02,Acu-Link.com,2013-04-01 12:54:00,
2013-04-01 09:09:00,56.7,38.8,29.71,WNW,292,1.1,-999.0,51,-99.99,,,0.02,Acu-Link.com,2013-04-01 13:09:00,
2013-04-01 09:24:00,57.2,38.2,29.71,West,270,2.2,-999.0,49,-99.99,,,0.02,Acu-Link.com,2013-04-01 13:24:00,
2013-04-01 09:39:00,58.1,36.9,29.71,NE,45,1.1,-999.0,45,-99.99,,,0.02,Acu-Link.com,2013-04-01 13:39:00,
2013-04-01 09:54:00,58.5,38.3,29.70,ESE,112,2.7,-999.0,47,-99.99,,,0.02,Acu-Link.com,2013-04-01 13:54:00,
2013-04-01 10:09:00,59.4,36.3,29.70,SW,225,3.7,-999.0,42,-99.99,,,0.02,Acu-Link.com,2013-04-01 14:09:00,
2013-04-01 10:24:00,60.1,36.3,29.71,East,90,3.2,-999.0,41,-99.99,,,0.02,Acu-Link.com,2013-04-01 14:24:00,
2013-04-01 10:39:00,61.3,38.0,29.71,West,270,2.7,-999.0,42,-99.99,,,0.02,Acu-Link.com,2013-04-01 14:39:00,
2013-04-01 10:55:00,61.3,36.8,29.70,West,270,4.7,-999.0,40,-99.99,,,0.02,Acu-Link.com,2013-04-01 14:55:00,
2013-04-01 11:25:00,63.0,35.6,29.70,West,270,2.7,-999.0,36,-99.99,,,0.02,Acu-Link.com,2013-04-01 15:25:00,
2013-04-01 11:40:00,64.0,37.9,29.71,SW,225,6.3,-999.0,38,-99.99,,,0.02,Acu-Link.com,2013-04-01 15:40:00,
2013-04-01 11:55:00,64.6,37.7,29.70,SW,225,4.2,-999.0,37,-99.99,,,0.02,Acu-Link.com,2013-04-01 15:55:00,
2013-04-01 12:10:00,65.7,36.6,29.70,SW,225,4.2,-999.0,34,-99.99,,,0.02,Acu-Link.com,2013-04-01 16:10:00,
2013-04-01 12:25:00,66.4,35.6,29.69,ENE,67,2.2,-999.0,32,-99.99,,,0.02,Acu-Link.com,2013-04-01 16:25:00,
2013-04-01 12:40:00,65.8,35.9,29.69,SW,225,4.2,-999.0,33,-99.99,,,0.02,Acu-Link.com,2013-04-01 16:40:00,
2013-04-01 12:55:00,67.3,37.2,29.68,West,270,3.7,-999.0,33,-99.99,,,0.02,Acu-Link.com,2013-04-01 16:55:00,
2013-04-01 13:11:00,68.4,36.6,29.68,SW,225,2.2,-999.0,31,-99.99,,,0.02,Acu-Link.com,2013-04-01 17:11:00,
2013-04-01 13:26:00,68.7,36.0,29.68,ESE,112,1.1,-999.0,30,-99.99,,,0.02,Acu-Link.com,2013-04-01 17:26:00,
2013-04-01 13:56:00,71.2,39.8,29.67,SW,225,5.8,-999.0,32,-99.99,,,0.02,Acu-Link.com,2013-04-01 17:56:00,
2013-04-01 14:26:00,71.2,37.3,29.66,WSW,247,6.8,-999.0,29,-99.99,,,0.02,Acu-Link.com,2013-04-01 18:26:00,
2013-04-01 14:41:00,71.2,37.3,29.66,WSW,247,4.2,-999.0,29,-99.99,,,0.02,Acu-Link.com,2013-04-01 18:41:00,
2013-04-01 15:11:00,71.6,38.5,29.65,North,0,3.7,-999.0,30,-99.99,,,0.02,Acu-Link.com,2013-04-01 19:11:00,
2013-04-01 15:27:00,72.3,38.3,29.65,West,270,6.8,-999.0,29,-99.99,,,0.02,Acu-Link.com,2013-04-01 19:27:00,
2013-04-01 15:42:00,72.1,37.2,29.64,NNE,22,4.7,-999.0,28,-99.99,,,0.02,Acu-Link.com,2013-04-01 19:42:00,
2013-04-01 15:57:00,72.0,37.1,29.65,WSW,247,5.3,-999.0,28,-99.99,,,0.02,Acu-Link.com,2013-04-01 19:57:00,
2013-04-01 16:12:00,72.7,38.6,29.65,NNE,22,5.3,-999.0,29,-99.99,,,0.02,Acu-Link.com,2013-04-01 20:12:00,
2013-04-01 16:27:00,71.4,38.3,29.65,SW,225,8.9,-999.0,30,-99.99,,,0.02,Acu-Link.com,2013-04-01 20:27:00,
2013-04-01 16:42:00,72.0,38.0,29.65,SSW,202,9.9,-999.0,29,-99.99,,,0.02,Acu-Link.com,2013-04-01 20:42:00,
2013-04-01 16:57:00,70.2,37.3,29.66,NE,45,6.8,-999.0,30,-99.99,,,0.02,Acu-Link.com,2013-04-01 20:57:00,
2013-04-01 17:12:00,70.2,37.3,29.66,ENE,67,10.4,-999.0,30,-99.99,,,0.02,Acu-Link.com,2013-04-01 21:12:00,
2013-04-01 17:27:00,70.9,37.9,29.65,WNW,292,4.2,-999.0,30,-99.99,,,0.02,Acu-Link.com,2013-04-01 21:27:00,
2013-04-01 17:42:00,71.2,38.2,29.66,NNE,22,4.2,-999.0,30,-99.99,,,0.02,Acu-Link.com,2013-04-01 21:42:00,
2013-04-01 17:58:00,70.9,39.6,29.66,SE,135,3.2,-999.0,32,-99.99,,,0.02,Acu-Link.com,2013-04-01 21:58:00,
2013-04-01 18:13:00,68.0,38.6,29.66,WSW,247,3.7,-999.0,34,-99.99,,,0.02,Acu-Link.com,2013-04-01 22:13:00,
2013-04-01 18:28:00,67.1,39.2,29.67,NE,45,3.7,-999.0,36,-99.99,,,0.02,Acu-Link.com,2013-04-01 22:28:00,
2013-04-01 18:43:00,66.9,39.1,29.67,WSW,247,6.3,-999.0,36,-99.99,,,0.02,Acu-Link.com,2013-04-01 22:43:00,
2013-04-01 18:58:00,66.7,38.2,29.67,NW,315,3.7,-999.0,35,-99.99,,,0.02,Acu-Link.com,2013-04-01 22:58:00,
2013-04-01 19:13:00,66.0,38.3,29.68,NW,315,4.2,-999.0,36,-99.99,,,0.02,Acu-Link.com,2013-04-01 23:13:00,
2013-04-01 19:28:00,65.1,38.9,29.68,West,270,3.2,-999.0,38,-99.99,,,0.02,Acu-Link.com,2013-04-01 23:28:00,
2013-04-01 19:43:00,64.2,37.4,29.68,ESE,112,6.3,-999.0,37,-99.99,,,0.02,Acu-Link.com,2013-04-01 23:43:00,
2013-04-01 19:58:00,63.1,37.1,29.69,West,270,2.7,-999.0,38,-99.99,,,0.02,Acu-Link.com,2013-04-01 23:58:00,
2013-04-01 20:14:00,62.2,37.6,29.68,WSW,247,3.2,-999.0,40,-99.99,,,0.02,Acu-Link.com,2013-04-02 00:14:00,
2013-04-01 20:29:00,61.9,37.9,29.69,WSW,247,2.7,-999.0,41,-99.99,,,0.02,Acu-Link.com,2013-04-02 00:29:00,
2013-04-01 20:44:00,61.2,37.9,29.69,West,270,3.7,-999.0,42,-99.99,,,0.02,Acu-Link.com,2013-04-02 00:44:00,
2013-04-01 20:59:00,60.6,37.4,29.70,ESE,112,1.1,-999.0,42,-99.99,,,0.02,Acu-Link.com,2013-04-02 00:59:00,
2013-04-01 21:14:00,59.7,37.8,29.70,SSW,202,1.1,-999.0,44,-99.99,,,0.02,Acu-Link.com,2013-04-02 01:14:00,
2013-04-01 21:29:00,59.0,37.7,29.71,SW,225,0.0,-999.0,45,-99.99,,,0.02,Acu-Link.com,2013-04-02 01:29:00,
2013-04-01 21:44:00,58.6,37.9,29.72,West,270,2.7,-999.0,46,-99.99,,,0.02,Acu-Link.com,2013-04-02 01:44:00,
2013-04-01 21:59:00,59.4,37.5,29.72,SW,225,5.8,-999.0,44,-99.99,,,0.02,Acu-Link.com,2013-04-02 01:59:00,
2013-04-01 22:14:00,58.6,36.8,29.73,West,270,6.8,-999.0,44,-99.99,,,0.02,Acu-Link.com,2013-04-02 02:14:00,
2013-04-01 22:30:00,58.8,36.9,29.73,WNW,292,2.7,-999.0,44,-99.99,,,0.02,Acu-Link.com,2013-04-02 02:30:00,
2013-04-01 22:45:00,58.1,36.3,29.73,WSW,247,1.7,-999.0,44,-99.99,,,0.02,Acu-Link.com,2013-04-02 02:45:00,
2013-04-01 23:00:00,57.7,35.9,29.74,SW,225,0.0,-999.0,44,-99.99,,,0.02,Acu-Link.com,2013-04-02 03:00:00,
2013-04-01 23:15:00,57.2,35.5,29.74,SW,225,2.7,-999.0,44,-99.99,,,0.02,Acu-Link.com,2013-04-02 03:15:00,
2013-04-01 23:30:00,56.5,36.0,29.74,SW,225,3.2,-999.0,46,-99.99,,,0.02,Acu-Link.com,2013-04-02 03:30:00,
2013-04-01 23:45:00,55.9,35.4,29.75,NNW,337,0.0,-999.0,46,-99.99,,,0.02,Acu-Link.com,2013-04-02 03:45:00,